createdAt,value
2018-03-24T00:01:52.648Z,6.80
2018-03-24T00:04:20.313Z,6.80
2018-03-24T00:06:48.402Z,6.80
2018-03-24T00:09:17.189Z,6.70
2018-03-24T00:11:45.180Z,6.70
2018-03-24T00:14:14.532Z,6.70
2018-03-24T00:16:42.481Z,6.70
2018-03-24T00:19:11.742Z,6.70
2018-03-24T00:21:39.394Z,6.70
2018-03-24T00:24:07.336Z,6.70
2018-03-24T00:26:34.939Z,6.70
2018-03-24T00:29:02.626Z,6.70
2018-03-24T00:31:30.217Z,6.70
2018-03-24T00:33:58.762Z,6.70
2018-03-24T00:36:26.473Z,6.70
2018-03-24T00:38:54.095Z,6.70
2018-03-24T00:41:22.571Z,6.70
2018-03-24T00:43:50.279Z,6.60
2018-03-24T00:46:17.970Z,6.60
2018-03-24T00:48:46.147Z,6.60
2018-03-24T00:51:15.238Z,6.60
2018-03-24T00:53:43.220Z,6.60
2018-03-24T00:56:11.597Z,6.50
2018-03-24T00:58:39.694Z,6.50
2018-03-24T01:01:07.993Z,6.40
2018-03-24T01:03:36.940Z,6.40
2018-03-24T01:06:06.300Z,6.40
2018-03-24T01:08:39.327Z,6.40
2018-03-24T01:11:08.128Z,6.40
2018-03-24T01:13:36.592Z,6.40
2018-03-24T01:16:05.187Z,6.40
2018-03-24T01:18:33.570Z,6.40
2018-03-24T01:21:05.967Z,6.30
2018-03-24T01:23:35.036Z,6.30
2018-03-24T01:26:03.362Z,6.30
2018-03-24T01:28:35.197Z,6.30
2018-03-24T01:31:08.173Z,6.40
2018-03-24T01:33:36.292Z,6.40
2018-03-24T01:36:05.730Z,6.40
2018-03-24T01:38:33.816Z,6.40
2018-03-24T01:41:02.299Z,6.40
2018-03-24T01:43:34.271Z,6.40
2018-03-24T01:46:07.460Z,6.40
2018-03-24T01:48:36.961Z,6.30
2018-03-24T01:51:04.888Z,6.40
2018-03-24T01:53:45.560Z,6.40
2018-03-24T01:56:16.952Z,6.40
2018-03-24T01:58:46.148Z,6.40
2018-03-24T02:01:18.723Z,6.30
2018-03-24T02:03:46.899Z,6.30
2018-03-24T02:06:14.950Z,6.20
2018-03-24T02:08:43.665Z,6.20
2018-03-24T02:11:15.319Z,6.20
2018-03-24T02:13:46.566Z,6.20
2018-03-24T02:16:15.412Z,6.20
2018-03-24T02:18:45.119Z,6.20
2018-03-24T02:21:13.318Z,6.20
2018-03-24T02:23:41.416Z,6.30
2018-03-24T02:26:09.491Z,6.30
2018-03-24T02:28:37.316Z,6.20
2018-03-24T02:31:05.980Z,6.20
2018-03-24T02:33:33.868Z,6.20
2018-03-24T02:36:02.421Z,6.20
2018-03-24T02:38:30.366Z,6.10
2018-03-24T02:40:59.064Z,6.20
2018-03-24T02:43:27.018Z,6.10
2018-03-24T02:45:54.765Z,6.10
2018-03-24T02:48:22.463Z,6.10
2018-03-24T02:50:50.521Z,6.10
2018-03-24T02:53:18.243Z,6.10
2018-03-24T02:55:46.790Z,6.00
2018-03-24T02:58:14.634Z,6.00
2018-03-24T03:00:42.398Z,6.00
2018-03-24T03:03:10.190Z,5.90
2018-03-24T03:05:37.996Z,5.90
2018-03-24T03:08:06.873Z,5.90
2018-03-24T03:10:34.682Z,5.90
2018-03-24T03:13:02.562Z,6.00
2018-03-24T03:15:30.285Z,6.00
2018-03-24T03:17:58.987Z,6.00
2018-03-24T03:20:27.579Z,6.00
2018-03-24T03:22:55.239Z,6.00
2018-03-24T03:25:22.988Z,6.00
2018-03-24T03:27:50.698Z,5.90
2018-03-24T03:30:18.464Z,5.80
2018-03-24T03:32:46.110Z,5.90
2018-03-24T03:35:13.750Z,5.90
2018-03-24T03:37:42.101Z,5.90
2018-03-24T03:40:09.711Z,5.90
2018-03-24T03:42:37.342Z,6.00
2018-03-24T03:45:05.694Z,5.90
2018-03-24T03:47:33.303Z,5.90
2018-03-24T03:50:00.898Z,5.80
2018-03-24T03:52:28.533Z,5.90
2018-03-24T03:54:56.187Z,5.90
2018-03-24T03:57:24.665Z,5.80
2018-03-24T03:59:59.192Z,5.70
2018-03-24T04:02:26.795Z,5.70
2018-03-24T04:04:54.433Z,5.70
2018-03-24T04:07:22.129Z,5.70
2018-03-24T04:09:49.720Z,5.80
2018-03-24T04:12:17.366Z,5.70
2018-03-24T04:14:44.954Z,5.70
2018-03-24T04:17:13.324Z,5.70
2018-03-24T04:19:41.131Z,5.70
2018-03-24T04:22:09.150Z,5.70
2018-03-24T04:24:37.056Z,5.70
2018-03-24T04:27:05.665Z,5.60
2018-03-24T04:29:33.656Z,5.60
2018-03-24T04:32:01.350Z,5.60
2018-03-24T04:34:29.026Z,5.60
2018-03-24T04:36:56.800Z,5.60
2018-03-24T04:39:25.210Z,5.70
2018-03-24T04:41:52.902Z,5.70
2018-03-24T04:44:20.605Z,5.70
2018-03-24T04:46:49.002Z,5.70
2018-03-24T04:49:16.586Z,5.70
2018-03-24T04:51:44.175Z,5.70
2018-03-24T04:54:12.136Z,5.70
2018-03-24T04:56:39.713Z,5.70
2018-03-24T04:59:07.314Z,5.70
2018-03-24T05:01:34.913Z,5.60
2018-03-24T05:04:02.536Z,5.70
2018-03-24T05:06:30.178Z,5.70
2018-03-24T05:08:58.542Z,5.70
2018-03-24T05:11:26.220Z,5.70
2018-03-24T05:13:53.841Z,5.60
2018-03-24T05:16:21.447Z,5.60
2018-03-24T05:18:50.150Z,5.60
2018-03-24T05:21:18.503Z,5.50
2018-03-24T05:23:46.105Z,5.50
2018-03-24T05:26:13.749Z,5.60
2018-03-24T05:28:41.300Z,5.60
2018-03-24T05:31:09.733Z,5.60
2018-03-24T05:33:37.396Z,5.60
2018-03-24T05:36:06.068Z,5.70
2018-03-24T05:38:33.722Z,5.60
2018-03-24T05:41:01.312Z,5.60
2018-03-24T05:43:28.920Z,5.70
2018-03-24T05:45:57.338Z,5.70
2018-03-24T05:48:25.425Z,5.70
2018-03-24T05:50:53.009Z,5.70
2018-03-24T05:53:20.596Z,5.70
2018-03-24T05:55:48.958Z,5.70
2018-03-24T05:58:16.542Z,5.70
2018-03-24T06:00:44.911Z,5.70
2018-03-24T06:03:13.283Z,5.70
2018-03-24T06:05:40.869Z,5.70
2018-03-24T06:08:08.454Z,5.80
2018-03-24T06:10:36.085Z,5.80
2018-03-24T06:13:03.740Z,5.80
2018-03-24T06:15:32.166Z,5.80
2018-03-24T06:17:59.839Z,5.80
2018-03-24T06:20:27.443Z,5.90
2018-03-24T06:22:55.827Z,5.90
2018-03-24T06:25:23.741Z,5.90
2018-03-24T06:27:51.458Z,6.00
2018-03-24T06:30:23.393Z,6.10
2018-03-24T06:32:51.542Z,6.10
2018-03-24T06:35:19.818Z,6.10
2018-03-24T06:37:47.889Z,6.10
2018-03-24T06:40:15.961Z,6.10
2018-03-24T06:42:44.767Z,6.10
2018-03-24T06:45:13.336Z,6.10
2018-03-24T06:47:43.178Z,6.10
2018-03-24T06:50:11.221Z,6.20
2018-03-24T06:52:40.932Z,6.10
2018-03-24T06:55:10.235Z,6.20
2018-03-24T06:57:38.084Z,6.30
2018-03-24T07:00:07.396Z,6.30
2018-03-24T07:02:35.995Z,6.40
2018-03-24T07:05:04.475Z,6.40
2018-03-24T07:07:32.421Z,6.40
2018-03-24T07:10:02.050Z,6.40
2018-03-24T07:12:31.400Z,6.50
2018-03-24T07:15:00.408Z,6.50
2018-03-24T07:17:30.584Z,6.60
2018-03-24T07:20:00.465Z,6.60
2018-03-24T07:22:39.295Z,6.70
2018-03-24T07:25:08.586Z,6.70
2018-03-24T07:27:45.775Z,6.70
2018-03-24T07:30:20.038Z,6.80
2018-03-24T07:32:52.424Z,6.80
2018-03-24T07:35:21.327Z,6.90
2018-03-24T07:37:49.884Z,7.00
2018-03-24T07:40:19.131Z,7.00
2018-03-24T07:42:54.795Z,7.00
2018-03-24T07:46:14.610Z,7.00
2018-03-24T07:48:42.546Z,7.00
2018-03-24T07:51:14.345Z,7.00
2018-03-24T07:53:43.694Z,7.10
2018-03-24T07:56:18.057Z,7.20
2018-03-24T07:58:46.988Z,7.20
2018-03-24T08:01:17.332Z,7.20
2018-03-24T08:03:47.330Z,7.40
2018-03-24T08:06:15.361Z,7.40
2018-03-24T08:08:47.521Z,7.50
2018-03-24T08:11:17.557Z,7.70
2018-03-24T08:13:45.630Z,7.70
2018-03-24T08:16:14.336Z,7.80
2018-03-24T08:18:42.912Z,7.80
2018-03-24T08:21:13.643Z,7.70
2018-03-24T08:23:42.168Z,7.60
2018-03-24T08:26:10.597Z,7.90
2018-03-24T08:28:38.678Z,7.90
2018-03-24T08:31:07.308Z,8.00
2018-03-24T08:33:36.143Z,7.90
2018-03-24T08:36:05.460Z,7.80
2018-03-24T08:38:34.004Z,7.90
2018-03-24T08:41:02.032Z,8.10
2018-03-24T08:43:31.185Z,8.20
2018-03-24T08:45:59.597Z,8.20
2018-03-24T08:48:28.090Z,8.30
2018-03-24T08:50:56.315Z,8.30
2018-03-24T08:53:24.502Z,8.30
2018-03-24T08:55:53.263Z,8.20
2018-03-24T08:58:22.063Z,8.40
2018-03-24T09:00:51.888Z,8.50
2018-03-24T09:03:21.241Z,8.50
2018-03-24T09:05:50.676Z,8.50
2018-03-24T09:08:20.440Z,8.60
2018-03-24T09:10:48.454Z,8.60
2018-03-24T09:13:16.545Z,8.70
2018-03-24T09:15:45.220Z,9.00
2018-03-24T09:18:14.054Z,9.10
2018-03-24T09:20:42.021Z,9.10
2018-03-24T09:23:10.164Z,9.20
2018-03-24T09:25:39.088Z,9.30
2018-03-24T09:28:07.163Z,9.30
2018-03-24T09:30:35.136Z,9.30
2018-03-24T09:33:03.002Z,9.40
2018-03-24T09:35:30.826Z,9.20
2018-03-24T09:37:59.706Z,9.50
2018-03-24T09:40:27.692Z,9.50
2018-03-24T09:42:56.831Z,10.00
2018-03-24T09:45:25.312Z,10.00
2018-03-24T09:47:53.494Z,10.30
2018-03-24T09:50:22.074Z,10.10
2018-03-24T09:52:50.310Z,10.20
2018-03-24T09:55:21.034Z,10.40
2018-03-24T09:57:55.120Z,10.40
2018-03-24T10:00:27.029Z,10.50
2018-03-24T10:02:55.834Z,10.80
2018-03-24T10:05:24.098Z,11.00
2018-03-24T10:07:51.798Z,11.30
2018-03-24T10:10:19.429Z,11.70
2018-03-24T10:12:47.056Z,11.80
2018-03-24T10:15:14.675Z,12.10
2018-03-24T10:17:42.315Z,11.90
2018-03-24T10:20:09.974Z,12.20
2018-03-24T10:36:15.730Z,12.70
2018-03-24T10:38:43.420Z,12.50
2018-03-24T10:41:11.228Z,12.50
2018-03-24T10:43:38.899Z,12.10
2018-03-24T10:46:07.329Z,12.40
2018-03-24T10:48:34.979Z,12.30
2018-03-24T10:51:02.567Z,12.20
2018-03-24T10:53:30.200Z,12.80
2018-03-24T10:55:57.803Z,12.90
2018-03-24T10:58:25.414Z,12.80
2018-03-24T11:00:59.425Z,12.20
2018-03-24T11:03:27.901Z,11.60
2018-03-24T11:05:56.315Z,11.60
2018-03-24T11:08:24.237Z,11.60
2018-03-24T11:10:52.130Z,11.40
2018-03-24T11:13:20.174Z,11.40
2018-03-24T11:15:49.215Z,11.30
2018-03-24T11:18:17.718Z,11.10
2018-03-24T11:20:47.856Z,10.90
2018-03-24T11:25:51.595Z,10.90
2018-03-24T11:28:20.231Z,11.30
2018-03-24T11:30:48.942Z,11.10
2018-03-24T11:33:21.953Z,11.40
2018-03-24T11:36:01.143Z,11.20
2018-03-24T11:38:30.547Z,11.10
2018-03-24T11:40:59.095Z,11.20
2018-03-24T11:43:29.252Z,11.30
2018-03-24T11:45:57.929Z,11.30
2018-03-24T11:48:28.472Z,11.00
2018-03-24T11:50:58.816Z,11.00
2018-03-24T11:53:38.774Z,10.90
2018-03-24T11:56:09.861Z,10.70
2018-03-24T11:58:38.273Z,10.50
2018-03-24T12:01:06.241Z,10.40
2018-03-24T12:03:34.621Z,10.40
2018-03-24T12:06:03.208Z,10.40
2018-03-24T12:11:10.452Z,10.30
2018-03-24T12:13:39.014Z,10.30
2018-03-24T12:16:08.064Z,10.50
2018-03-24T12:18:37.192Z,10.40
2018-03-24T12:21:10.789Z,10.40
2018-03-24T12:23:40.920Z,10.60
2018-03-24T12:26:09.199Z,10.50
2018-03-24T12:28:37.489Z,10.40
2018-03-24T12:31:08.722Z,10.40
2018-03-24T12:33:36.891Z,10.40
2018-03-24T12:36:05.373Z,10.30
2018-03-24T12:38:33.651Z,10.40
2018-03-24T12:41:02.204Z,10.50
2018-03-24T12:43:36.867Z,10.60
2018-03-24T12:46:05.140Z,10.70
2018-03-24T12:48:33.111Z,10.50
2018-03-24T12:51:02.113Z,10.40
2018-03-24T12:53:30.770Z,10.70
2018-03-24T12:56:04.161Z,11.00
2018-03-24T12:58:34.048Z,10.90
2018-03-24T13:01:02.363Z,10.90
2018-03-24T13:03:33.122Z,10.90
2018-03-24T13:06:00.996Z,10.90
2018-03-24T13:11:02.410Z,11.00
2018-03-24T13:13:30.734Z,10.80
2018-03-24T13:15:59.136Z,11.00
2018-03-24T13:18:27.724Z,11.00
2018-03-24T13:20:56.531Z,11.10
2018-03-24T13:23:28.608Z,11.20
2018-03-24T13:25:56.426Z,11.70
2018-03-24T13:28:24.107Z,12.10
2018-03-24T13:30:52.905Z,12.00
2018-03-24T13:33:21.390Z,11.70
2018-03-24T13:35:49.543Z,11.90
2018-03-24T13:38:18.427Z,11.60
2018-03-24T13:40:47.654Z,11.50
2018-03-24T13:43:15.495Z,11.40
2018-03-24T13:45:43.463Z,11.50
2018-03-24T13:48:11.748Z,11.30
2018-03-24T13:50:40.026Z,11.30
2018-03-24T13:53:09.423Z,11.40
2018-03-24T13:55:37.689Z,11.40
2018-03-24T13:58:05.878Z,11.40
2018-03-24T14:00:35.061Z,11.50
2018-03-24T14:03:03.772Z,11.60
2018-03-24T14:05:31.815Z,11.50
2018-03-24T14:08:03.280Z,11.40
2018-03-24T14:10:31.611Z,11.30
2018-03-24T14:12:59.840Z,11.30
2018-03-24T14:15:27.994Z,11.20
2018-03-24T14:17:56.794Z,11.10
2018-03-24T14:20:27.848Z,11.10
2018-03-24T14:22:56.127Z,11.00
2018-03-24T14:25:24.025Z,11.10
2018-03-24T14:27:52.563Z,11.00
2018-03-24T14:30:22.710Z,11.10
2018-03-24T14:32:50.574Z,11.10
2018-03-24T14:35:19.259Z,10.90
2018-03-24T14:37:47.950Z,10.90
2018-03-24T14:40:16.221Z,11.00
2018-03-24T14:42:44.286Z,11.00
2018-03-24T14:45:12.338Z,11.00
2018-03-24T14:47:40.337Z,10.90
2018-03-24T14:50:08.316Z,11.10
2018-03-24T14:52:36.515Z,11.20
2018-03-24T14:55:04.906Z,11.00
2018-03-24T14:57:33.345Z,10.90
2018-03-24T15:00:01.727Z,11.00
2018-03-24T15:02:31.212Z,11.00
2018-03-24T15:04:59.208Z,11.00
2018-03-24T15:07:28.709Z,10.80
2018-03-24T15:10:00.266Z,10.80
2018-03-24T15:12:28.730Z,10.80
2018-03-24T15:14:56.778Z,10.70
2018-03-24T15:17:26.233Z,10.70
2018-03-24T15:19:54.914Z,10.60
2018-03-24T15:22:23.004Z,10.70
2018-03-24T15:24:53.071Z,10.80
2018-03-24T15:27:22.286Z,10.60
2018-03-24T15:30:02.148Z,10.60
2018-03-24T15:32:53.060Z,10.50
2018-03-24T15:35:34.860Z,10.40
2018-03-24T15:38:03.235Z,10.50
2018-03-24T15:40:32.542Z,10.50
2018-03-24T15:43:00.819Z,10.40
2018-03-24T15:45:30.014Z,10.40
2018-03-24T15:47:59.086Z,10.40
2018-03-24T15:50:27.903Z,10.80
2018-03-24T15:52:56.279Z,10.50
2018-03-24T15:55:25.120Z,10.50
2018-03-24T15:57:53.056Z,10.50
2018-03-24T16:00:21.113Z,10.40
2018-03-24T16:02:49.185Z,10.30
2018-03-24T16:05:17.558Z,10.30
2018-03-24T16:07:46.150Z,10.40
2018-03-24T16:10:14.435Z,10.40
2018-03-24T16:57:29.521Z,10.30
2018-03-24T16:59:58.459Z,9.70
2018-03-24T17:02:26.349Z,9.70
2018-03-24T17:04:55.276Z,9.60
2018-03-24T17:07:23.323Z,9.60
2018-03-24T17:09:51.996Z,9.70
2018-03-24T17:12:21.653Z,9.70
2018-03-24T17:14:50.638Z,9.60
2018-03-24T17:17:19.374Z,9.60
2018-03-24T17:19:49.802Z,9.60
2018-03-24T17:22:17.907Z,9.60
2018-03-24T17:24:46.112Z,9.50
2018-03-24T17:27:14.689Z,9.50
2018-03-24T17:29:42.897Z,9.40
2018-03-24T17:32:11.760Z,9.50
2018-03-24T17:34:40.140Z,9.50
2018-03-24T17:37:08.195Z,9.40
2018-03-24T17:39:36.203Z,9.40
2018-03-24T17:42:04.178Z,9.40
2018-03-24T17:44:32.005Z,9.30
2018-03-24T17:47:00.262Z,9.30
2018-03-24T17:49:28.087Z,9.30
2018-03-24T17:51:56.171Z,9.30
2018-03-24T17:54:24.134Z,9.30
2018-03-24T17:56:52.279Z,9.30
2018-03-24T17:59:20.290Z,9.30
2018-03-24T18:01:48.168Z,9.30
2018-03-24T18:04:16.148Z,9.20
2018-03-24T18:06:45.274Z,9.20
2018-03-24T18:09:13.547Z,9.20
2018-03-24T18:11:43.666Z,9.20
2018-03-24T18:14:11.736Z,9.20
2018-03-24T18:16:40.358Z,9.10
2018-03-24T18:19:08.517Z,9.10
2018-03-24T18:21:36.595Z,9.10
2018-03-24T18:24:04.445Z,9.00
2018-03-24T18:26:32.497Z,9.00
2018-03-24T18:29:01.485Z,9.00
2018-03-24T18:31:31.313Z,9.00
2018-03-24T18:34:00.956Z,9.00
2018-03-24T18:36:28.716Z,9.00
2018-03-24T18:38:56.909Z,8.90
2018-03-24T18:41:24.909Z,8.90
2018-03-24T18:43:59.172Z,8.90
2018-03-24T18:46:30.228Z,8.90
2018-03-24T18:48:59.889Z,8.90
2018-03-24T18:51:35.859Z,8.70
2018-03-24T18:54:05.992Z,8.70
2018-03-24T18:56:34.894Z,8.70
2018-03-24T18:59:07.687Z,8.70
2018-03-24T19:01:36.991Z,8.60
2018-03-24T19:47:46.750Z,8.60
2018-03-24T19:50:14.368Z,7.80
2018-03-24T19:52:42.712Z,7.80
2018-03-24T19:55:10.299Z,7.80
2018-03-24T19:57:37.870Z,7.80
2018-03-24T20:00:06.458Z,7.80
2018-03-24T20:02:34.208Z,7.70
2018-03-24T20:05:01.990Z,7.70
2018-03-24T20:07:29.591Z,7.70
2018-03-24T20:09:57.209Z,7.70
2018-03-24T20:12:25.610Z,7.60
2018-03-24T20:14:53.216Z,7.60
2018-03-24T20:17:20.885Z,7.60
2018-03-24T20:19:48.599Z,7.50
2018-03-24T20:22:16.305Z,7.50
2018-03-24T20:24:43.910Z,7.40
2018-03-24T20:27:12.269Z,7.40
2018-03-24T20:29:39.907Z,7.30
2018-03-24T20:32:07.528Z,7.30
2018-03-24T20:34:35.196Z,7.30
2018-03-24T20:37:02.918Z,7.30
2018-03-24T20:39:30.550Z,7.20
2018-03-24T20:41:58.151Z,7.20
2018-03-24T20:44:25.734Z,7.10
2018-03-24T20:46:54.136Z,7.00
2018-03-24T20:49:21.832Z,7.00
2018-03-24T20:51:49.414Z,7.00
2018-03-24T20:54:17.096Z,6.90
2018-03-24T20:56:45.709Z,6.80
2018-03-24T20:59:14.139Z,6.70
2018-03-24T21:01:41.792Z,6.70
2018-03-24T21:04:09.414Z,6.70
2018-03-24T21:06:37.103Z,6.70
2018-03-24T21:09:04.698Z,6.70
2018-03-24T21:11:32.425Z,6.60
2018-03-24T21:14:00.057Z,6.50
2018-03-24T21:16:27.748Z,6.50
2018-03-24T21:18:55.344Z,6.50
2018-03-24T21:21:22.947Z,6.50
2018-03-24T21:23:50.630Z,6.40
2018-03-24T21:26:18.261Z,6.30
2018-03-24T21:28:46.673Z,6.20
2018-03-24T21:31:14.575Z,6.20
2018-03-24T21:33:42.344Z,6.10
2018-03-24T21:36:10.029Z,6.00
2018-03-24T21:38:38.388Z,5.70
2018-03-24T21:41:06.097Z,5.70
2018-03-24T21:43:33.684Z,5.70
2018-03-24T21:46:01.606Z,5.60
2018-03-24T21:48:29.967Z,5.50
2018-03-24T21:50:57.801Z,5.50
2018-03-24T21:53:25.756Z,5.50
2018-03-24T21:55:53.350Z,5.50
2018-03-24T21:58:20.984Z,5.40
2018-03-24T22:00:48.566Z,5.40
2018-03-24T22:03:16.162Z,5.40
2018-03-24T22:05:43.783Z,5.50
2018-03-24T22:08:11.375Z,5.40
2018-03-24T22:10:38.969Z,5.40
2018-03-24T22:13:07.320Z,5.50
2018-03-24T22:15:34.924Z,5.50
2018-03-24T22:18:02.604Z,5.40
2018-03-24T22:20:30.189Z,5.20
2018-03-24T22:22:57.795Z,5.10
2018-03-24T22:25:26.166Z,4.80
2018-03-24T22:27:54.532Z,4.70
2018-03-24T22:30:22.111Z,4.70
2018-03-24T22:32:49.713Z,4.70
2018-03-24T22:35:17.352Z,4.70
2018-03-24T22:37:44.940Z,4.40
2018-03-24T22:40:12.528Z,4.30
2018-03-24T22:42:40.113Z,4.50
2018-03-24T22:45:08.489Z,4.60
2018-03-24T22:47:36.852Z,4.60
2018-03-24T22:50:04.459Z,4.60
2018-03-24T22:52:32.049Z,4.60
2018-03-24T22:54:59.637Z,4.60
2018-03-24T22:57:27.253Z,4.50
2018-03-24T22:59:54.882Z,4.30
2018-03-24T23:02:23.237Z,4.10
2018-03-24T23:04:51.612Z,4.00
2018-03-24T23:07:19.211Z,4.00
2018-03-24T23:09:46.830Z,4.30
2018-03-24T23:12:14.562Z,4.40
2018-03-24T23:14:42.317Z,4.50
2018-03-24T23:17:09.938Z,4.50
2018-03-24T23:19:37.574Z,4.50
2018-03-24T23:22:05.209Z,4.50
2018-03-24T23:24:32.825Z,4.40
2018-03-24T23:27:00.456Z,4.40
2018-03-24T23:29:28.067Z,4.40
2018-03-24T23:31:59.057Z,4.20
2018-03-24T23:34:26.671Z,4.20
2018-03-24T23:36:55.044Z,4.10
2018-03-24T23:39:23.473Z,4.00
2018-03-24T23:41:51.110Z,4.00
2018-03-24T23:44:18.875Z,4.00
2018-03-24T23:46:46.665Z,4.00
2018-03-24T23:49:14.733Z,3.90
2018-03-24T23:51:42.538Z,3.80
2018-03-24T23:54:10.189Z,3.70
2018-03-24T23:56:38.244Z,3.70
2018-03-24T23:59:05.885Z,3.70
